Time;durP1;ratioP1;P1;durP2;ratioP2;P2;SDS_P1;SDS_P2;PMS_P1;PMS_P2;Temp;Humidity;BMP_temperature;BMP_pressure;BME280_temperature;BME280_humidity;BME280_pressure;Samples;Min_cycle;Max_cycle;Signal;HPM_P1;HPM_P2
2023/12/24 00:01:31;;;;;;;5.03;3.88;;;21.80;99.90;;;;;;5055419;28;20055;-54
2023/12/24 00:03:56;;;;;;;4.72;3.83;;;21.70;99.90;;;;;;5055479;28;20029;-52
2023/12/24 00:06:22;;;;;;;5.78;3.70;;;21.70;99.90;;;;;;5055421;28;20401;-53
2023/12/24 00:08:49;;;;;;;6.00;3.47;;;21.70;99.90;;;;;;5055772;28;20120;-53
2023/12/24 00:11:14;;;;;;;5.25;4.35;;;21.70;99.90;;;;;;5055420;28;20381;-53
2023/12/24 00:13:40;;;;;;;4.50;3.90;;;21.70;99.90;;;;;;5055311;28;20021;-53
2023/12/24 00:16:06;;;;;;;5.63;3.65;;;21.70;99.90;;;;;;5055390;28;20029;-52
2023/12/24 00:18:32;;;;;;;6.30;4.18;;;21.70;99.90;;;;;;5055265;28;20087;-54
2023/12/24 00:20:58;;;;;;;6.63;4.20;;;21.70;99.90;;;;;;5053996;28;20110;-53
2023/12/24 00:23:23;;;;;;;4.70;4.20;;;21.70;99.90;;;;;;5055017;28;20025;-54
2023/12/24 00:25:49;;;;;;;5.32;4.05;;;21.60;99.90;;;;;;5055284;28;20037;-53
2023/12/24 00:28:15;;;;;;;5.78;4.07;;;21.60;99.90;;;;;;5055027;28;20445;-52
2023/12/24 00:30:41;;;;;;;6.07;4.18;;;21.60;99.90;;;;;;5054947;28;20207;-52
2023/12/24 00:33:07;;;;;;;5.38;3.95;;;21.60;99.90;;;;;;5052879;28;20535;-53
2023/12/24 00:35:34;;;;;;;4.85;3.95;;;21.60;99.90;;;;;;5054877;28;20047;-53
2023/12/24 00:38:00;;;;;;;5.43;4.20;;;21.60;99.90;;;;;;5054919;28;20051;-53
2023/12/24 00:40:25;;;;;;;4.40;3.47;;;21.50;99.90;;;;;;5054836;28;20052;-52
2023/12/24 00:42:51;;;;;;;5.53;4.10;;;21.60;99.90;;;;;;5054949;28;20028;-53
2023/12/24 00:45:17;;;;;;;4.82;4.22;;;21.50;99.90;;;;;;5054816;28;20044;-52
2023/12/24 00:47:43;;;;;;;4.03;3.40;;;21.50;99.90;;;;;;5054629;28;20044;-52
2023/12/24 00:50:09;;;;;;;6.30;4.05;;;21.50;99.90;;;;;;5054425;28;20095;-51
2023/12/24 00:52:35;;;;;;;7.50;4.15;;;21.50;99.90;;;;;;5054500;28;20021;-50
2023/12/24 00:55:01;;;;;;;6.50;4.57;;;21.50;99.90;;;;;;5054473;28;20028;-51
2023/12/24 00:57:27;;;;;;;7.28;4.47;;;21.50;99.90;;;;;;5054376;28;20505;-49
2023/12/24 00:59:56;;;;;;;6.03;4.10;;;21.40;99.90;;;;;;5054687;28;20017;-52
2023/12/24 01:02:22;;;;;;;5.00;3.63;;;21.40;99.90;;;;;;5053096;28;20040;-53
2023/12/24 01:04:47;;;;;;;6.22;4.45;;;21.40;99.90;;;;;;5054142;28;20408;-53
2023/12/24 01:07:13;;;;;;;5.28;4.10;;;21.40;99.90;;;;;;5054371;28;20096;-52
2023/12/24 01:09:40;;;;;;;5.25;3.50;;;21.40;99.90;;;;;;5054231;28;20473;-52
2023/12/24 01:12:06;;;;;;;5.22;4.72;;;21.40;99.90;;;;;;5054193;28;20013;-53
2023/12/24 01:14:32;;;;;;;4.53;3.60;;;21.30;99.90;;;;;;5054076;28;20032;-52
2023/12/24 01:16:59;;;;;;;5.72;4.20;;;21.30;99.90;;;;;;5053962;28;20033;-53
2023/12/24 01:19:26;;;;;;;4.65;3.72;;;21.30;99.90;;;;;;5054011;28;20025;-53
2023/12/24 01:21:54;;;;;;;5.40;3.75;;;21.40;99.90;;;;;;5054170;28;20104;-52
2023/12/24 01:24:20;;;;;;;5.15;3.95;;;21.30;99.90;;;;;;5054048;28;20052;-52
2023/12/24 01:26:46;;;;;;;5.85;4.07;;;21.30;99.90;;;;;;5053892;28;20359;-52
2023/12/24 01:29:12;;;;;;;5.18;3.53;;;21.30;99.90;;;;;;5053718;28;20078;-52
2023/12/24 01:31:38;;;;;;;5.78;4.25;;;21.30;99.90;;;;;;5053535;28;20025;-52
2023/12/24 01:34:04;;;;;;;5.50;4.13;;;21.30;99.90;;;;;;5053630;28;20484;-53
2023/12/24 01:36:30;;;;;;;5.07;4.03;;;21.30;99.90;;;;;;5053642;28;20021;-54
2023/12/24 01:38:56;;;;;;;4.70;3.40;;;21.30;99.90;;;;;;5053657;28;20029;-53
2023/12/24 01:41:22;;;;;;;5.25;3.92;;;21.20;99.90;;;;;;5052375;28;20390;-53
2023/12/24 01:43:49;;;;;;;4.25;3.85;;;21.20;99.90;;;;;;5052418;28;20497;-52
2023/12/24 01:46:20;;;;;;;;;;;21.20;99.90;;;;;;5053878;28;20032;-53
2023/12/24 01:48:48;;;;;;;4.45;3.35;;;21.20;99.90;;;;;;5053454;28;19932;-52
2023/12/24 01:51:16;;;;;;;6.63;3.70;;;21.20;99.90;;;;;;5053281;28;20025;-53
2023/12/24 01:53:43;;;;;;;4.78;3.67;;;21.20;99.90;;;;;;5053261;28;20025;-52
2023/12/24 01:56:09;;;;;;;6.10;4.45;;;21.20;99.90;;;;;;5053146;28;20021;-52
2023/12/24 01:58:34;;;;;;;4.00;3.40;;;21.10;99.90;;;;;;5051935;28;20032;-52
2023/12/24 02:01:01;;;;;;;3.40;2.97;;;21.10;99.90;;;;;;5053659;28;20025;-52
2023/12/24 02:03:27;;;;;;;4.90;3.83;;;21.10;99.90;;;;;;5051552;28;20067;-53
2023/12/24 02:05:54;;;;;;;5.10;3.83;;;21.10;99.90;;;;;;5053354;28;20307;-53
2023/12/24 02:08:21;;;;;;;4.30;3.42;;;21.10;99.90;;;;;;5053098;28;20028;-52
2023/12/24 02:10:50;;;;;;;5.95;4.32;;;21.10;99.90;;;;;;5053028;28;20534;-51
2023/12/24 02:13:17;;;;;;;5.55;3.72;;;21.00;99.90;;;;;;5052831;28;20469;-51
2023/12/24 02:15:47;;;;;;;4.60;3.28;;;21.10;99.90;;;;;;5051653;28;20503;-52
2023/12/24 02:18:13;;;;;;;4.03;3.38;;;21.00;99.90;;;;;;5052893;28;20027;-53
2023/12/24 02:20:39;;;;;;;6.20;4.00;;;21.00;99.90;;;;;;5052963;28;20100;-53
2023/12/24 02:23:05;;;;;;;4.15;3.75;;;21.00;99.90;;;;;;5052792;28;20537;-52
2023/12/24 02:25:31;;;;;;;4.82;3.80;;;21.00;99.90;;;;;;5052648;28;20037;-54
2023/12/24 02:28:00;;;;;;;4.88;3.55;;;21.00;99.90;;;;;;5052765;28;20026;-54
2023/12/24 02:30:33;;;;;;;5.72;4.10;;;21.00;99.90;;;;;;5051450;28;20469;-53
2023/12/24 02:33:01;;;;;;;5.50;3.75;;;21.00;99.90;;;;;;5052593;28;20096;-51
2023/12/24 02:35:32;;;;;;;4.35;3.53;;;21.00;99.90;;;;;;5052607;28;20099;-52
2023/12/24 02:37:57;;;;;;;5.05;4.03;;;21.00;99.90;;;;;;5051489;28;20025;-52
2023/12/24 02:40:23;;;;;;;5.18;3.50;;;21.00;99.90;;;;;;5052638;28;20029;-51
2023/12/24 02:42:49;;;;;;;7.18;4.10;;;20.90;99.90;;;;;;5052401;28;20517;-52
2023/12/24 02:45:15;;;;;;;4.88;3.97;;;20.90;99.90;;;;;;5052469;28;20370;-53
2023/12/24 02:47:41;;;;;;;6.78;3.47;;;20.90;99.90;;;;;;5052587;28;20054;-54
2023/12/24 02:50:07;;;;;;;4.55;3.65;;;20.90;99.90;;;;;;5052391;28;20035;-53
2023/12/24 02:52:33;;;;;;;5.55;3.75;;;20.90;99.90;;;;;;5052678;28;20040;-53
2023/12/24 02:54:58;;;;;;;5.32;4.25;;;20.90;99.90;;;;;;5051927;28;20477;-51
2023/12/24 02:57:26;;;;;;;4.75;3.78;;;20.80;99.90;;;;;;5052217;28;20092;-53
2023/12/24 02:59:52;;;;;;;4.47;3.53;;;20.80;99.90;;;;;;5052055;28;20045;-51
2023/12/24 03:02:18;;;;;;;4.50;3.50;;;20.80;99.90;;;;;;5051341;28;20120;-51
2023/12/24 03:04:43;;;;;;;4.15;2.97;;;20.80;99.90;;;;;;5051065;28;20485;-52
2023/12/24 03:07:12;;;;;;;4.13;3.35;;;20.80;99.90;;;;;;5052200;28;20413;-53
2023/12/24 03:09:38;;;;;;;4.28;3.38;;;20.80;99.90;;;;;;5052120;28;20024;-50
2023/12/24 03:12:05;;;;;;;4.70;3.33;;;20.80;99.90;;;;;;5052159;28;20411;-50
2023/12/24 03:14:30;;;;;;;5.70;3.97;;;20.80;99.90;;;;;;5052021;28;20029;-53
2023/12/24 03:16:56;;;;;;;3.53;3.13;;;20.80;99.90;;;;;;5052100;28;20039;-51
2023/12/24 03:19:22;;;;;;;4.00;2.97;;;20.80;99.90;;;;;;5052077;28;20029;-52
2023/12/24 03:21:48;;;;;;;3.80;3.20;;;20.70;99.90;;;;;;5052261;28;20120;-51
2023/12/24 03:24:14;;;;;;;4.15;3.10;;;20.70;99.90;;;;;;5052225;28;20440;-52
2023/12/24 03:26:39;;;;;;;4.35;3.17;;;20.70;99.90;;;;;;5052037;28;20017;-51
2023/12/24 03:29:05;;;;;;;3.97;3.25;;;20.70;99.90;;;;;;5051924;28;20104;-50
2023/12/24 03:31:31;;;;;;;5.05;3.13;;;20.70;99.90;;;;;;5052106;28;20028;-52
2023/12/24 03:33:57;;;;;;;4.10;3.42;;;20.70;99.90;;;;;;5050642;28;20025;-51
2023/12/24 03:36:23;;;;;;;6.50;3.63;;;20.70;99.90;;;;;;5051980;28;20111;-51
2023/12/24 03:38:49;;;;;;;4.80;3.58;;;20.70;99.90;;;;;;5051810;28;20104;-52
2023/12/24 03:41:15;;;;;;;4.05;3.30;;;20.70;99.90;;;;;;5052058;28;20040;-51
2023/12/24 03:43:41;;;;;;;4.47;3.13;;;20.70;99.90;;;;;;5051803;28;20028;-53
2023/12/24 03:46:07;;;;;;;5.43;3.42;;;20.70;99.90;;;;;;5051894;28;20116;-52
2023/12/24 03:48:35;;;;;;;4.68;3.72;;;20.60;99.90;;;;;;5051808;28;20029;-52
2023/12/24 03:51:01;;;;;;;3.75;2.97;;;20.70;99.90;;;;;;5051698;28;20032;-53
2023/12/24 03:53:28;;;;;;;6.22;3.40;;;20.60;99.90;;;;;;5051655;28;20017;-52
2023/12/24 03:55:54;;;;;;;4.50;2.80;;;20.60;99.90;;;;;;5051778;28;20048;-53
2023/12/24 03:58:19;;;;;;;4.65;2.90;;;20.60;99.90;;;;;;5051729;28;20477;-53
2023/12/24 04:00:46;;;;;;;3.80;3.30;;;20.60;99.90;;;;;;5052477;28;20036;-51
2023/12/24 04:03:11;;;;;;;2.90;2.60;;;20.60;99.90;;;;;;5051749;28;20043;-53
2023/12/24 04:05:37;;;;;;;3.72;3.08;;;20.60;99.90;;;;;;5051531;28;20036;-53
2023/12/24 04:08:04;;;;;;;3.33;2.55;;;20.60;99.90;;;;;;5052704;28;20021;-54
2023/12/24 04:10:31;;;;;;;3.47;2.97;;;20.60;99.90;;;;;;5055369;28;20113;-52
2023/12/24 04:13:03;;;;;;;3.53;2.85;;;20.60;99.90;;;;;;5055303;28;20017;-52
2023/12/24 04:15:28;;;;;;;4.63;3.38;;;20.60;99.90;;;;;;5055284;28;20465;-52
2023/12/24 04:17:54;;;;;;;4.43;3.20;;;20.60;99.90;;;;;;5055117;28;20032;-53
2023/12/24 04:20:20;;;;;;;3.97;3.03;;;20.60;99.90;;;;;;5037257;28;20195;-53
2023/12/24 04:22:46;;;;;;;3.70;3.13;;;20.50;99.90;;;;;;5055263;28;20078;-52
2023/12/24 04:25:11;;;;;;;3.78;2.90;;;20.50;99.90;;;;;;5054912;28;20041;-52
2023/12/24 04:27:37;;;;;;;3.63;2.60;;;20.50;99.90;;;;;;5055103;28;20035;-53
2023/12/24 04:30:03;;;;;;;4.95;3.00;;;20.50;99.90;;;;;;5055014;28;20029;-53
2023/12/24 04:32:29;;;;;;;4.63;2.97;;;20.50;99.90;;;;;;5054899;28;20465;-53
2023/12/24 04:34:55;;;;;;;4.47;3.10;;;20.50;99.90;;;;;;5036946;28;20127;-52
2023/12/24 04:37:20;;;;;;;3.13;2.83;;;20.50;99.90;;;;;;5055000;28;20032;-52
2023/12/24 04:39:46;;;;;;;4.85;2.60;;;20.50;99.90;;;;;;5054991;28;20036;-52
2023/12/24 04:42:13;;;;;;;5.68;2.90;;;20.50;99.90;;;;;;5054699;28;20025;-52
2023/12/24 04:44:38;;;;;;;4.80;3.15;;;20.50;99.90;;;;;;5054631;28;20032;-52
2023/12/24 04:47:06;;;;;;;3.40;2.85;;;20.50;99.90;;;;;;5054457;28;20390;-52
2023/12/24 04:49:32;;;;;;;4.18;2.80;;;20.50;99.90;;;;;;5054458;28;20017;-52
2023/12/24 04:51:59;;;;;;;3.08;2.53;;;20.50;99.90;;;;;;5054478;28;20500;-52
2023/12/24 04:54:28;;;;;;;4.97;3.33;;;20.40;99.90;;;;;;5054543;28;20029;-52
2023/12/24 04:56:54;;;;;;;2.95;2.65;;;20.40;99.90;;;;;;5054409;28;20362;-52
2023/12/24 04:59:20;;;;;;;4.00;2.75;;;20.40;99.90;;;;;;5054554;28;20032;-52
2023/12/24 05:01:47;;;;;;;3.97;3.30;;;20.40;99.90;;;;;;5054648;28;20037;-52
2023/12/24 05:04:13;;;;;;;3.58;2.55;;;20.40;99.90;;;;;;5054162;28;20078;-52
2023/12/24 05:06:39;;;;;;;3.50;2.80;;;20.40;99.90;;;;;;5054203;28;20025;-52
2023/12/24 05:09:05;;;;;;;4.18;3.03;;;20.40;99.90;;;;;;5054255;28;20025;-52
2023/12/24 05:11:31;;;;;;;3.88;2.97;;;20.40;99.90;;;;;;5052877;28;20058;-52
2023/12/24 05:13:57;;;;;;;3.55;2.90;;;20.40;99.90;;;;;;5054135;28;20021;-52
2023/12/24 05:16:22;;;;;;;4.25;3.05;;;20.40;99.90;;;;;;5053052;28;20028;-51
2023/12/24 05:18:49;;;;;;;4.10;2.80;;;20.40;99.90;;;;;;5052775;28;20025;-52
2023/12/24 05:21:15;;;;;;;3.63;2.90;;;20.40;99.90;;;;;;5053936;28;20037;-52
2023/12/24 05:23:40;;;;;;;3.17;2.63;;;20.40;99.90;;;;;;5053804;28;20025;-52
2023/12/24 05:26:06;;;;;;;3.05;2.72;;;20.40;99.90;;;;;;5053947;28;20029;-52
2023/12/24 05:28:32;;;;;;;3.35;2.63;;;20.30;99.90;;;;;;5053782;28;20389;-52
2023/12/24 05:30:59;;;;;;;3.20;2.67;;;20.30;99.90;;;;;;5053775;28;20039;-52
2023/12/24 05:33:24;;;;;;;3.13;2.67;;;20.30;99.90;;;;;;5053683;28;20033;-52
2023/12/24 05:35:50;;;;;;;4.30;2.90;;;20.40;99.90;;;;;;5053931;28;20027;-52
2023/12/24 05:38:16;;;;;;;3.97;3.03;;;20.30;99.90;;;;;;5053578;28;20057;-52
2023/12/24 05:40:42;;;;;;;3.28;2.75;;;20.30;99.90;;;;;;5053501;28;20028;-52
2023/12/24 05:43:08;;;;;;;3.30;2.95;;;20.30;99.90;;;;;;5053575;28;20033;-52
2023/12/24 05:45:35;;;;;;;4.00;3.00;;;20.30;99.90;;;;;;5053446;28;20115;-52
2023/12/24 05:48:01;;;;;;;3.25;2.60;;;20.30;99.90;;;;;;5053562;28;20491;-52
2023/12/24 05:50:27;;;;;;;3.55;3.00;;;20.30;99.90;;;;;;5053320;28;20033;-52
2023/12/24 05:52:53;;;;;;;4.38;3.22;;;20.30;99.90;;;;;;5053575;28;20126;-52
2023/12/24 05:55:19;;;;;;;3.33;2.83;;;20.30;99.90;;;;;;5053303;28;20028;-52
2023/12/24 05:57:44;;;;;;;3.35;2.90;;;20.30;99.90;;;;;;5053371;28;20504;-52
2023/12/24 06:00:11;;;;;;;3.63;2.70;;;20.30;99.90;;;;;;5053059;28;20021;-53
2023/12/24 06:02:36;;;;;;;4.13;3.00;;;20.20;99.90;;;;;;5052985;28;20123;-53
2023/12/24 06:05:02;;;;;;;3.58;2.63;;;20.20;99.90;;;;;;5053082;28;20115;-53
2023/12/24 06:07:28;;;;;;;3.03;2.63;;;20.20;99.90;;;;;;5053094;28;20075;-53
2023/12/24 06:09:54;;;;;;;3.05;2.42;;;20.20;99.90;;;;;;5053395;28;20025;-53
2023/12/24 06:12:20;;;;;;;5.47;3.15;;;20.20;99.90;;;;;;5052995;28;20104;-53
2023/12/24 06:14:45;;;;;;;3.42;2.63;;;20.20;99.90;;;;;;5052953;28;20445;-53
2023/12/24 06:17:11;;;;;;;3.45;2.38;;;20.20;99.90;;;;;;5051511;28;20466;-53
2023/12/24 06:19:37;;;;;;;3.22;2.88;;;20.20;99.90;;;;;;5053078;28;20501;-53
2023/12/24 06:22:03;;;;;;;3.40;2.55;;;20.20;99.90;;;;;;5051651;28;20052;-53
2023/12/24 06:24:28;;;;;;;5.85;3.58;;;20.20;99.90;;;;;;5051352;28;20059;-53
2023/12/24 06:26:54;;;;;;;3.50;2.25;;;20.20;99.90;;;;;;5053043;28;20535;-52
2023/12/24 06:29:20;;;;;;;4.80;2.95;;;20.20;99.90;;;;;;5052104;28;20079;-53
2023/12/24 06:31:46;;;;;;;3.35;2.75;;;20.20;99.90;;;;;;5052439;28;20100;-53
2023/12/24 06:34:12;;;;;;;3.10;2.60;;;20.20;99.90;;;;;;5051405;28;20048;-53
2023/12/24 06:36:38;;;;;;;4.43;3.72;;;20.10;99.90;;;;;;5052670;28;20366;-53
2023/12/24 06:39:04;;;;;;;5.25;3.10;;;20.10;99.90;;;;;;5034648;28;20149;-53
2023/12/24 06:41:30;;;;;;;3.97;3.55;;;20.10;99.90;;;;;;5052474;28;20021;-53
2023/12/24 06:43:56;;;;;;;3.63;2.75;;;20.10;99.90;;;;;;5052656;28;20458;-53
2023/12/24 06:46:24;;;;;;;3.90;2.78;;;20.10;99.90;;;;;;5052594;28;20024;-53
2023/12/24 06:48:50;;;;;;;;;;;20.10;99.90;;;;;;5052718;28;20031;-53
2023/12/24 06:51:16;;;;;;;3.95;2.90;;;20.10;99.90;;;;;;5052425;28;19905;-53
2023/12/24 06:53:41;;;;;;;4.35;3.20;;;20.10;99.90;;;;;;5052241;28;20086;-53
2023/12/24 06:56:07;;;;;;;4.18;3.17;;;20.10;99.90;;;;;;5050990;28;20042;-53
2023/12/24 06:58:33;;;;;;;6.22;3.17;;;20.10;99.90;;;;;;5052368;28;20032;-54
2023/12/24 07:00:59;;;;;;;4.50;3.10;;;20.10;99.90;;;;;;5052330;28;20421;-53
2023/12/24 07:03:24;;;;;;;3.75;3.10;;;20.10;99.90;;;;;;5052284;28;20056;-53
2023/12/24 07:05:50;;;;;;;5.80;3.20;;;20.10;99.90;;;;;;5052103;28;20121;-54
2023/12/24 07:08:16;;;;;;;4.45;3.45;;;20.00;99.90;;;;;;5052153;28;20059;-53
2023/12/24 07:10:43;;;;;;;7.28;3.33;;;20.00;99.90;;;;;;5052244;28;20025;-53
2023/12/24 07:13:08;;;;;;;4.00;3.10;;;20.10;99.90;;;;;;5052136;28;20025;-53
2023/12/24 07:15:39;;;;;;;4.90;3.03;;;20.00;99.90;;;;;;5052331;28;20432;-53
2023/12/24 07:18:05;;;;;;;3.67;3.15;;;20.00;99.90;;;;;;5052043;28;20017;-53
2023/12/24 07:20:30;;;;;;;3.92;2.95;;;20.00;99.90;;;;;;5050905;28;20081;-54
2023/12/24 07:22:56;;;;;;;3.78;2.85;;;20.00;99.90;;;;;;5052314;28;20024;-53
2023/12/24 07:25:22;;;;;;;3.58;3.10;;;20.00;99.90;;;;;;5051891;28;20068;-53
2023/12/24 07:27:48;;;;;;;5.03;3.42;;;20.00;99.90;;;;;;5051958;28;20029;-54
2023/12/24 07:30:14;;;;;;;4.78;3.40;;;20.00;99.90;;;;;;5050545;28;20040;-53
2023/12/24 07:32:46;;;;;;;5.80;3.58;;;20.00;99.90;;;;;;5051796;28;20025;-53
2023/12/24 07:35:12;;;;;;;5.22;3.10;;;20.00;99.90;;;;;;5051937;28;20021;-54
2023/12/24 07:37:42;;;;;;;4.53;3.47;;;20.00;99.90;;;;;;5052032;28;20082;-53
2023/12/24 07:40:08;;;;;;;5.03;3.50;;;20.00;99.90;;;;;;5051751;28;20200;-54
2023/12/24 07:42:38;;;;;;;5.82;3.28;;;19.90;99.90;;;;;;5055221;28;20025;-53
2023/12/24 07:45:04;;;;;;;4.50;3.67;;;19.90;99.90;;;;;;5054494;28;20116;-53
2023/12/24 07:47:33;;;;;;;5.72;3.40;;;19.90;99.90;;;;;;5056019;28;20021;-53
2023/12/24 07:49:58;;;;;;;3.92;3.15;;;19.90;99.90;;;;;;5055784;28;20029;-54
2023/12/24 07:52:25;;;;;;;5.90;3.33;;;19.90;99.90;;;;;;5054406;28;20021;-54
2023/12/24 07:54:51;;;;;;;4.95;3.38;;;19.90;99.90;;;;;;5055610;28;20049;-54
2023/12/24 07:57:17;;;;;;;3.72;3.05;;;19.90;99.90;;;;;;5055612;28;20120;-54
2023/12/24 07:59:43;;;;;;;4.25;3.30;;;20.00;99.90;;;;;;5055520;28;20056;-53
2023/12/24 08:02:08;;;;;;;3.90;3.15;;;20.00;99.90;;;;;;5055420;28;20041;-53
2023/12/24 08:04:34;;;;;;;3.88;2.92;;;20.00;99.90;;;;;;5055421;28;20025;-53
2023/12/24 08:07:00;;;;;;;4.63;3.30;;;20.00;99.90;;;;;;5055533;28;20043;-53
2023/12/24 08:09:26;;;;;;;3.70;3.30;;;20.00;99.90;;;;;;5055158;28;20465;-53
2023/12/24 08:11:52;;;;;;;5.88;3.10;;;20.00;99.90;;;;;;5055277;28;20029;-53
2023/12/24 08:14:18;;;;;;;5.25;3.40;;;20.10;99.90;;;;;;5055310;28;20477;-53
2023/12/24 08:16:44;;;;;;;5.32;3.00;;;20.10;99.90;;;;;;5055201;28;20021;-55
2023/12/24 08:19:10;;;;;;;4.03;2.92;;;20.10;99.90;;;;;;5055280;28;20446;-53
2023/12/24 08:21:35;;;;;;;4.60;3.33;;;20.20;99.90;;;;;;5055181;28;20021;-52
2023/12/24 08:24:02;;;;;;;4.18;3.28;;;20.20;99.90;;;;;;5055139;28;20116;-52
2023/12/24 08:26:28;;;;;;;4.68;3.15;;;20.20;99.90;;;;;;5055368;28;20029;-55
2023/12/24 08:28:53;;;;;;;6.10;3.63;;;20.30;99.90;;;;;;5054979;28;20033;-52
2023/12/24 08:31:19;;;;;;;4.13;3.13;;;20.30;99.90;;;;;;5054908;28;20109;-53
2023/12/24 08:33:45;;;;;;;4.85;3.00;;;20.30;99.90;;;;;;5054955;28;20017;-53
2023/12/24 08:36:11;;;;;;;5.25;3.30;;;20.30;99.90;;;;;;5054869;28;20025;-54
2023/12/24 08:38:37;;;;;;;4.07;3.38;;;20.30;99.90;;;;;;5054699;28;20449;-54
2023/12/24 08:41:03;;;;;;;3.70;3.10;;;20.40;99.90;;;;;;5055003;28;20096;-54
2023/12/24 08:43:28;;;;;;;4.43;3.58;;;20.40;99.90;;;;;;5054867;28;20025;-54
2023/12/24 08:45:59;;;;;;;4.55;3.42;;;20.50;99.90;;;;;;5054606;28;20048;-54
2023/12/24 08:48:25;;;;;;;3.80;3.10;;;20.50;99.90;;;;;;5054766;28;20036;-54
2023/12/24 08:50:50;;;;;;;4.63;3.55;;;20.50;99.90;;;;;;5054515;28;20028;-54
2023/12/24 08:53:16;;;;;;;6.82;3.60;;;20.50;99.90;;;;;;5053884;28;20029;-55
2023/12/24 08:55:42;;;;;;;5.60;3.50;;;20.60;99.90;;;;;;5054529;28;20025;-55
2023/12/24 08:58:08;;;;;;;5.38;3.45;;;20.60;99.90;;;;;;5054405;28;20025;-54
2023/12/24 09:00:33;;;;;;;5.15;3.55;;;20.60;99.90;;;;;;5053431;28;20110;-54
2023/12/24 09:02:59;;;;;;;5.13;3.78;;;20.70;99.90;;;;;;5054353;28;20524;-55
2023/12/24 09:05:25;;;;;;;4.30;3.28;;;20.70;99.90;;;;;;5054159;28;20511;-54
2023/12/24 09:07:51;;;;;;;4.97;3.72;;;20.70;99.90;;;;;;5054191;28;20029;-54
2023/12/24 09:10:17;;;;;;;4.65;3.53;;;20.80;99.90;;;;;;5054269;28;20025;-53
2023/12/24 09:12:43;;;;;;;4.10;3.20;;;20.80;99.90;;;;;;5054122;28;20055;-54
2023/12/24 09:15:09;;;;;;;6.18;4.05;;;20.80;99.90;;;;;;5052940;28;20400;-54
2023/12/24 09:17:35;;;;;;;4.28;3.15;;;20.80;99.90;;;;;;5053020;28;20025;-54
2023/12/24 09:20:01;;;;;;;5.00;3.97;;;20.90;99.90;;;;;;5054191;28;20044;-53
2023/12/24 09:22:27;;;;;;;3.97;3.33;;;20.90;99.90;;;;;;5053943;28;20029;-54
2023/12/24 09:24:53;;;;;;;5.07;3.38;;;20.90;99.90;;;;;;5052862;28;20032;-54
2023/12/24 09:27:19;;;;;;;5.18;3.67;;;21.00;99.90;;;;;;5053839;28;20025;-56
2023/12/24 09:29:44;;;;;;;5.85;3.95;;;21.00;99.90;;;;;;5053784;28;20055;-53
2023/12/24 09:32:10;;;;;;;5.43;3.55;;;21.00;99.90;;;;;;5053734;28;20036;-54
2023/12/24 09:34:36;;;;;;;5.97;3.33;;;21.10;99.90;;;;;;5053972;28;20074;-54
2023/12/24 09:37:02;;;;;;;6.78;3.90;;;21.10;99.90;;;;;;5053678;28;20049;-54
2023/12/24 09:39:27;;;;;;;7.97;4.65;;;21.10;99.90;;;;;;5053562;28;20199;-53
2023/12/24 09:41:54;;;;;;;5.57;4.00;;;21.20;99.90;;;;;;5053623;28;20113;-55
2023/12/24 09:44:22;;;;;;;6.32;3.83;;;21.20;99.90;;;;;;5053531;28;20503;-54
2023/12/24 09:46:48;;;;;;;6.07;4.03;;;21.20;99.90;;;;;;5052227;28;20068;-54
2023/12/24 09:49:13;;;;;;;5.03;3.88;;;21.20;99.90;;;;;;5053556;28;20049;-56
2023/12/24 09:51:42;;;;;;;6.38;3.92;;;21.30;99.90;;;;;;5053367;28;20031;-55
2023/12/24 09:54:08;;;;;;;4.25;3.50;;;21.30;99.90;;;;;;5053450;28;20447;-54
2023/12/24 09:56:34;;;;;;;5.75;4.03;;;21.30;99.90;;;;;;5053693;28;20029;-54
2023/12/24 09:59:00;;;;;;;4.68;3.63;;;21.40;99.90;;;;;;5053224;28;20017;-54
2023/12/24 10:01:26;;;;;;;6.05;4.70;;;21.40;99.90;;;;;;5053034;28;20045;-53
2023/12/24 10:03:52;;;;;;;4.82;3.63;;;21.40;99.90;;;;;;5052917;28;20071;-55
2023/12/24 10:06:17;;;;;;;5.85;4.53;;;21.50;99.90;;;;;;5051052;28;20445;-54
2023/12/24 10:08:43;;;;;;;8.18;4.55;;;21.50;99.90;;;;;;5052967;28;20017;-53
2023/12/24 10:11:13;;;;;;;6.32;4.25;;;21.60;99.90;;;;;;5053010;28;20522;-54
2023/12/24 10:13:40;;;;;;;5.90;4.35;;;21.60;99.90;;;;;;5051643;28;20029;-54
2023/12/24 10:16:07;;;;;;;5.18;4.32;;;21.60;99.90;;;;;;5053114;28;20461;-54
2023/12/24 10:18:33;;;;;;;5.75;3.97;;;21.70;99.90;;;;;;5052876;28;20029;-54
2023/12/24 10:21:06;;;;;;;5.63;3.90;;;21.70;99.90;;;;;;5052771;28;20036;-54
2023/12/24 10:23:32;;;;;;;5.50;3.72;;;21.80;99.90;;;;;;5052749;28;20485;-53
2023/12/24 10:26:20;;;;;;;4.88;3.83;;;21.90;99.90;;;;;;5051274;28;20543;-54
2023/12/24 10:28:49;;;;;;;5.78;3.95;;;21.80;99.90;;;;;;5052585;28;20025;-54
2023/12/24 10:31:15;;;;;;;6.88;4.20;;;21.90;99.90;;;;;;5052543;28;20118;-53
2023/12/24 10:33:41;;;;;;;6.00;4.38;;;21.90;99.90;;;;;;5052490;28;20021;-54
2023/12/24 10:36:08;;;;;;;6.45;4.45;;;22.00;99.90;;;;;;5052860;28;20036;-53
2023/12/24 10:38:35;;;;;;;5.35;4.15;;;22.00;99.90;;;;;;5052422;28;20103;-53
2023/12/24 10:41:02;;;;;;;5.15;4.28;;;22.10;99.90;;;;;;5052355;28;20033;-54
2023/12/24 10:43:28;;;;;;;5.05;4.30;;;22.10;99.90;;;;;;5052331;28;20028;-54
2023/12/24 10:45:55;;;;;;;6.75;4.80;;;22.20;99.90;;;;;;5052202;28;20045;-54
2023/12/24 10:48:22;;;;;;;6.05;4.15;;;22.30;99.90;;;;;;5052338;28;20354;-53
2023/12/24 10:50:48;;;;;;;5.75;4.18;;;22.30;99.90;;;;;;5052411;28;20493;-54
2023/12/24 10:53:14;;;;;;;6.63;4.78;;;22.40;99.90;;;;;;5052091;28;20033;-53
2023/12/24 10:56:02;;;;;;;5.32;4.53;;;22.40;99.90;;;;;;5051094;28;20032;-54
2023/12/24 10:58:31;;;;;;;7.28;5.05;;;22.40;99.90;;;;;;5052206;28;20029;-52
2023/12/24 11:01:10;;;;;;;7.45;4.97;;;22.50;99.90;;;;;;5052225;28;20039;-53
2023/12/24 11:03:49;;;;;;;6.75;3.92;;;22.50;99.90;;;;;;5052363;28;20037;-54
2023/12/24 11:06:36;;;;;;;6.03;4.55;;;22.50;99.90;;;;;;5051971;28;20067;-54
2023/12/24 11:09:31;;;;;;;6.55;4.32;;;22.60;99.90;;;;;;5051891;28;20025;-51
2023/12/24 11:12:00;;;;;;;7.90;4.50;;;22.60;99.90;;;;;;5043978;28;20540;-53
2023/12/24 11:14:39;;;;;;;7.80;4.57;;;22.70;99.90;;;;;;5051851;28;20029;-54
2023/12/24 11:17:06;;;;;;;6.80;5.22;;;22.70;99.90;;;;;;5051500;28;20549;-56
2023/12/24 11:19:35;;;;;;;14.60;5.47;;;22.70;99.90;;;;;;5051997;28;20037;-54
2023/12/24 11:22:09;;;;;;;5.88;4.75;;;22.80;99.90;;;;;;5051923;28;20101;-54
2023/12/24 11:24:42;;;;;;;5.60;4.50;;;22.80;99.90;;;;;;5051720;28;20500;-53
2023/12/24 11:27:09;;;;;;;8.18;5.57;;;22.90;99.90;;;;;;5051956;28;20505;-53
2023/12/24 11:29:42;;;;;;;6.93;5.13;;;22.90;99.90;;;;;;5051578;28;20017;-54
2023/12/24 11:32:26;;;;;;;7.40;5.40;;;22.90;99.90;;;;;;5050820;28;20033;-53
2023/12/24 11:34:58;;;;;;;7.35;5.63;;;22.90;99.90;;;;;;5051749;28;20396;-52
2023/12/24 11:37:36;;;;;;;8.35;6.10;;;23.00;99.90;;;;;;5050433;28;20366;-55
2023/12/24 11:40:03;;;;;;;7.95;6.05;;;23.00;99.90;;;;;;5051715;28;20025;-53
2023/12/24 11:42:49;;;;;;;8.23;6.45;;;23.00;99.90;;;;;;5050712;28;20017;-53
2023/12/24 11:45:26;;;;;;;15.73;8.07;;;23.10;99.90;;;;;;5051446;28;20095;-52
2023/12/24 11:47:53;;;;;;;10.20;7.38;;;23.10;99.90;;;;;;5051709;28;20067;-53
2023/12/24 11:50:19;;;;;;;13.73;6.97;;;23.20;99.90;;;;;;5051598;28;20025;-53
2023/12/24 11:52:47;;;;;;;11.10;8.18;;;23.20;99.90;;;;;;5051659;28;20029;-54
2023/12/24 11:55:17;;;;;;;11.38;7.70;;;23.20;99.90;;;;;;5051792;28;20384;-53
2023/12/24 11:57:44;;;;;;;12.02;8.10;;;23.20;99.90;;;;;;5051806;28;20028;-53
2023/12/24 12:00:13;;;;;;;12.20;8.37;;;23.20;99.90;;;;;;5051740;28;20037;-54
2023/12/24 12:02:41;;;;;;;12.45;8.63;;;23.30;99.90;;;;;;5051462;28;20432;-53
2023/12/24 12:05:08;;;;;;;12.23;8.15;;;23.30;99.90;;;;;;5051400;28;20063;-53
2023/12/24 12:07:35;;;;;;;11.95;8.68;;;23.30;99.90;;;;;;5051317;28;20428;-53
2023/12/24 12:10:02;;;;;;;13.82;9.43;;;23.40;99.90;;;;;;5051363;28;20040;-53
2023/12/24 12:12:28;;;;;;;11.73;8.57;;;23.40;99.90;;;;;;5051478;28;20076;-53
2023/12/24 12:14:54;;;;;;;13.30;9.48;;;23.40;99.90;;;;;;5051478;28;20045;-53
2023/12/24 12:17:20;;;;;;;11.07;8.38;;;23.40;99.90;;;;;;5050057;28;20021;-53
2023/12/24 12:19:46;;;;;;;10.48;8.15;;;23.40;99.90;;;;;;5051440;28;20538;-54
2023/12/24 12:22:11;;;;;;;12.88;8.68;;;23.50;99.90;;;;;;5051478;28;20044;-53
2023/12/24 12:24:37;;;;;;;12.10;8.68;;;23.50;99.90;;;;;;5051267;28;20385;-53
2023/12/24 12:27:03;;;;;;;11.43;8.20;;;23.50;99.90;;;;;;5051352;28;20025;-53
2023/12/24 12:29:31;;;;;;;12.98;8.57;;;23.50;99.90;;;;;;5054305;28;20025;-53
2023/12/24 12:31:58;;;;;;;11.02;8.30;;;23.50;99.90;;;;;;5054899;28;20056;-53
2023/12/24 12:34:24;;;;;;;10.68;8.18;;;23.50;99.90;;;;;;5054855;28;20025;-53
2023/12/24 12:36:50;;;;;;;11.63;7.80;;;23.60;99.90;;;;;;5054686;28;20029;-52
2023/12/24 12:39:16;;;;;;;12.00;7.70;;;23.60;99.90;;;;;;5055002;28;20096;-53
2023/12/24 12:41:42;;;;;;;9.23;7.73;;;23.60;99.90;;;;;;5054776;28;20025;-51
2023/12/24 12:44:08;;;;;;;10.18;7.63;;;23.70;99.90;;;;;;5054606;28;20028;-53